Lusk, Lusk Municipal Airport (KLSK)

NameLusk Municipal Airport
CityLusk
CountryUnited States
ICAOKLSK
IATA
Altitude1513 m
CoordinatesGoogle Map
Live Air TrafficLiveATC.net
METARKLSK 261119Z AUTO 12003KT 10SM CLR 15/14 A3010 RMK AO2
2016-07-26 09:19:00 Wind: East-Southeast (120°) 1.54 m/s - Visibility: 16093.4 m - Temperature: 15 °C - Dew point: 14 °C - Humidity: 93.8% - Pressure: 1019.3 hPa
Statistics

The table below shows the detailed information of all flights to/from Lusk, Lusk Municipal Airport (KLSK).